createdAt,value
2022-12-06T00:02:11.806Z,101096.34
2022-12-06T00:04:38.500Z,101097.75
2022-12-06T00:07:05.143Z,101106.31
2022-12-06T00:09:32.890Z,101108.78
2022-12-06T00:11:59.531Z,101105.06
2022-12-06T00:14:26.582Z,101099.16
2022-12-06T00:16:53.290Z,101097.44
2022-12-06T00:19:22.233Z,101096.84
2022-12-06T00:21:49.140Z,101098.16
2022-12-06T00:24:18.502Z,101087.78
2022-12-06T00:26:47.389Z,101078.94
2022-12-06T00:29:17.657Z,101083.56
2022-12-06T00:31:44.454Z,101077.38
2022-12-06T00:34:11.221Z,101086.69
2022-12-06T00:36:40.317Z,101079.00
2022-12-06T00:39:13.876Z,101084.88
2022-12-06T00:41:41.029Z,101088.25
2022-12-06T00:44:08.387Z,101080.69
2022-12-06T00:46:36.091Z,101085.09
2022-12-06T00:49:04.905Z,101086.69
2022-12-06T00:51:33.827Z,101092.41
2022-12-06T00:54:00.682Z,101090.44
2022-12-06T00:56:27.406Z,101084.72
2022-12-06T00:58:54.449Z,101083.28
2022-12-06T01:01:27.227Z,101079.22
2022-12-06T01:03:59.409Z,101093.81
2022-12-06T01:06:28.757Z,101083.66
2022-12-06T01:09:00.828Z,101088.84
2022-12-06T01:11:27.927Z,101094.38
2022-12-06T01:13:55.258Z,101092.69
2022-12-06T01:16:24.890Z,101094.56
2022-12-06T01:18:55.090Z,101091.25
2022-12-06T01:21:23.330Z,101094.97
2022-12-06T01:23:50.314Z,101090.28
2022-12-06T01:26:18.779Z,101092.13
2022-12-06T01:28:45.707Z,101093.97
2022-12-06T01:31:13.468Z,101096.16
2022-12-06T01:33:40.174Z,101095.59
2022-12-06T01:36:07.085Z,101098.31
2022-12-06T01:38:34.040Z,101104.47
2022-12-06T01:41:01.605Z,101101.06
2022-12-06T01:43:40.920Z,101100.88
2022-12-06T01:46:39.962Z,101100.06
2022-12-06T01:49:12.665Z,101097.16
2022-12-06T01:51:44.079Z,101088.06
2022-12-06T01:54:13.610Z,101092.13
2022-12-06T01:56:40.624Z,101094.78
2022-12-06T01:59:08.025Z,101078.44
2022-12-06T02:01:35.633Z,101073.31
2022-12-06T02:04:02.633Z,101072.72
2022-12-06T02:06:30.782Z,101081.56
2022-12-06T02:09:00.765Z,101083.88
2022-12-06T02:11:32.067Z,101082.34
2022-12-06T02:14:04.943Z,101069.31
2022-12-06T02:16:38.027Z,101065.53
2022-12-06T02:19:24.764Z,101061.84
2022-12-06T02:22:05.004Z,101062.44
2022-12-06T02:24:43.581Z,101072.03
2022-12-06T02:27:37.813Z,101063.28
2022-12-06T02:30:08.390Z,101065.25
2022-12-06T02:32:43.975Z,101060.97
2022-12-06T02:35:19.402Z,101060.97
2022-12-06T02:37:52.576Z,101062.59
2022-12-06T02:40:42.731Z,101059.28
2022-12-06T02:43:15.573Z,101066.88
2022-12-06T02:45:47.922Z,101061.84
2022-12-06T02:48:17.029Z,101063.28
2022-12-06T02:50:48.495Z,101066.16
2022-12-06T02:53:21.407Z,101064.16
2022-12-06T02:55:50.115Z,101063.28
2022-12-06T02:58:16.628Z,101068.72
2022-12-06T03:00:45.779Z,101054.25
2022-12-06T03:03:50.669Z,101051.84
2022-12-06T03:06:49.444Z,101045.81
2022-12-06T03:09:22.298Z,101039.22
2022-12-06T03:12:24.799Z,101046.09
2022-12-06T03:15:12.906Z,101046.38
2022-12-06T03:17:39.402Z,101052.41
2022-12-06T03:20:15.648Z,101051.72
2022-12-06T03:22:48.485Z,101065.88
2022-12-06T03:25:16.745Z,101060.44
2022-12-06T03:27:43.849Z,101058.47
2022-12-06T03:30:14.034Z,101065.63
2022-12-06T03:32:45.825Z,101053.28
2022-12-06T03:35:16.481Z,101059.31
2022-12-06T03:37:47.834Z,101063.88
2022-12-06T03:40:20.848Z,101063.28
2022-12-06T03:42:49.168Z,101061.31
2022-12-06T03:45:16.202Z,101060.00
2022-12-06T03:47:58.089Z,101065.06
2022-12-06T03:50:37.970Z,101054.28
2022-12-06T03:53:04.554Z,101056.56
2022-12-06T03:55:31.095Z,101052.88
2022-12-06T03:57:57.617Z,101057.72
2022-12-06T04:00:24.133Z,101055.00
2022-12-06T04:02:50.704Z,101047.00
2022-12-06T04:05:17.602Z,101048.97
2022-12-06T04:07:44.194Z,101048.84
2022-12-06T04:10:11.242Z,101052.44
2022-12-06T04:12:56.421Z,101048.84
2022-12-06T04:15:23.304Z,101055.84
2022-12-06T04:18:08.603Z,101047.00
2022-12-06T04:20:54.052Z,101048.97
2022-12-06T04:23:21.229Z,101047.00
2022-12-06T04:25:47.933Z,101049.56
2022-12-06T04:28:33.227Z,101043.53
2022-12-06T04:31:22.097Z,101050.41
2022-12-06T04:34:08.502Z,101041.53
2022-12-06T04:36:55.043Z,101055.00
2022-12-06T04:39:21.622Z,101048.69
2022-12-06T04:42:07.637Z,101049.56
2022-12-06T04:44:34.402Z,101050.13
2022-12-06T04:47:01.580Z,101049.72
2022-12-06T04:49:28.391Z,101047.84
2022-12-06T04:51:55.878Z,101048.97
2022-12-06T04:54:23.408Z,101048.97
2022-12-06T04:56:49.949Z,101043.81
2022-12-06T04:59:16.803Z,101051.88
2022-12-06T05:01:43.303Z,101048.69
2022-12-06T05:04:09.971Z,101040.41
2022-12-06T05:06:36.691Z,101039.09
2022-12-06T05:09:04.008Z,101048.25
2022-12-06T05:11:30.778Z,101043.97
2022-12-06T05:13:57.666Z,101047.41
2022-12-06T05:16:24.194Z,101043.66
2022-12-06T05:18:50.817Z,101039.97
2022-12-06T05:21:20.768Z,101042.81
2022-12-06T05:23:47.529Z,101037.63
2022-12-06T05:26:19.406Z,101042.69
2022-12-06T05:28:47.494Z,101042.38
2022-12-06T05:31:14.658Z,101037.50
2022-12-06T05:33:41.408Z,101045.97
2022-12-06T05:36:10.478Z,101044.25
2022-12-06T05:38:37.141Z,101052.69
2022-12-06T05:41:04.404Z,101040.63
2022-12-06T05:43:31.303Z,101047.50
2022-12-06T05:45:58.245Z,101041.63
2022-12-06T05:48:25.359Z,101030.88
2022-12-06T05:50:53.113Z,101038.47
2022-12-06T05:53:20.350Z,101035.34
2022-12-06T05:55:47.516Z,101031.72
2022-12-06T05:58:15.105Z,101042.78
2022-12-06T06:00:41.909Z,101037.03
2022-12-06T06:03:09.608Z,101037.91
2022-12-06T06:05:36.221Z,101030.88
2022-12-06T06:08:02.880Z,101021.44
2022-12-06T06:10:29.467Z,101028.03
2022-12-06T06:12:56.035Z,101029.03
2022-12-06T06:15:22.574Z,101034.06
2022-12-06T06:17:49.143Z,101032.19
2022-12-06T06:20:15.747Z,101033.16
2022-12-06T06:22:42.415Z,101036.59
2022-12-06T06:25:09.776Z,101033.47
2022-12-06T06:27:37.831Z,101036.19
2022-12-06T06:30:10.825Z,101035.19
2022-12-06T06:32:37.413Z,101040.06
2022-12-06T06:35:05.727Z,101042.34
2022-12-06T06:37:32.920Z,101043.81
2022-12-06T06:40:00.683Z,101040.16
2022-12-06T06:42:27.768Z,101038.06
2022-12-06T06:44:57.387Z,101032.91
2022-12-06T06:47:24.180Z,101036.59
2022-12-06T06:49:50.683Z,101038.19
2022-12-06T06:52:17.342Z,101039.19
2022-12-06T06:54:43.905Z,101046.06
2022-12-06T06:57:15.801Z,101038.72
2022-12-06T06:59:44.452Z,101034.50
2022-12-06T07:02:16.725Z,101031.94
2022-12-06T07:04:44.616Z,101037.41
2022-12-06T07:07:17.716Z,101039.97
2022-12-06T07:09:47.588Z,101029.50
2022-12-06T07:12:14.497Z,101043.72
2022-12-06T07:14:41.155Z,101034.72
2022-12-06T07:17:07.872Z,101048.34
2022-12-06T07:19:34.483Z,101049.25
2022-12-06T07:22:01.393Z,101046.53
2022-12-06T07:24:28.100Z,101043.06
2022-12-06T07:26:56.712Z,101048.53
2022-12-06T07:29:23.380Z,101048.06
2022-12-06T07:31:49.914Z,101050.38
2022-12-06T07:34:16.635Z,101044.63
2022-12-06T07:36:43.157Z,101056.41
2022-12-06T07:39:14.562Z,101041.34
2022-12-06T07:42:01.033Z,101044.75
2022-12-06T07:45:01.650Z,101044.69
2022-12-06T07:47:37.298Z,101048.41
2022-12-06T07:50:09.495Z,101048.56
2022-12-06T07:52:38.547Z,101053.25
2022-12-06T07:55:07.164Z,101053.53
2022-12-06T07:57:38.544Z,101054.84
2022-12-06T08:00:10.051Z,101059.56
2022-12-06T08:02:39.964Z,101057.03
2022-12-06T08:05:06.703Z,101062.19
2022-12-06T08:07:33.354Z,101057.97
2022-12-06T08:10:00.418Z,101058.72
2022-12-06T08:12:33.549Z,101076.84
2022-12-06T08:15:00.461Z,101072.56
2022-12-06T08:17:27.928Z,101069.41
2022-12-06T08:19:54.560Z,101072.81
2022-12-06T08:22:21.311Z,101072.81
2022-12-06T08:24:48.093Z,101077.50
2022-12-06T08:27:14.746Z,101074.66
2022-12-06T08:29:41.348Z,101076.38
2022-12-06T08:32:07.944Z,101074.78
2022-12-06T08:34:34.683Z,101079.22
2022-12-06T08:37:03.465Z,101083.28
2022-12-06T08:39:30.692Z,101080.00
2022-12-06T08:42:00.185Z,101080.00
2022-12-06T08:44:28.430Z,101087.03
2022-12-06T08:46:56.723Z,101085.41
2022-12-06T08:49:24.523Z,101079.72
2022-12-06T08:51:52.124Z,101082.31
2022-12-06T08:54:21.943Z,101085.59
2022-12-06T08:56:51.019Z,101084.47
2022-12-06T08:59:19.292Z,101095.09
2022-12-06T09:01:47.018Z,101092.47
2022-12-06T09:04:13.800Z,101099.06
2022-12-06T09:06:42.615Z,101094.19
2022-12-06T09:09:10.870Z,101097.94
2022-12-06T09:11:38.349Z,101098.75
2022-12-06T09:14:05.397Z,101101.63
2022-12-06T09:16:32.052Z,101097.63
2022-12-06T09:18:58.682Z,101096.44
2022-12-06T09:21:30.293Z,101104.75
2022-12-06T09:23:57.914Z,101095.28
2022-12-06T09:26:25.215Z,101103.19
2022-12-06T09:28:54.439Z,101103.28
2022-12-06T09:31:21.720Z,101096.66
2022-12-06T09:33:48.774Z,101097.53
2022-12-06T09:36:18.261Z,101099.19
2022-12-06T09:38:47.390Z,101098.34
2022-12-06T09:41:44.838Z,101097.66
2022-12-06T09:44:39.172Z,101099.66
2022-12-06T09:47:11.894Z,101099.59
2022-12-06T09:49:57.502Z,101102.91
2022-12-06T09:52:29.780Z,101101.34
2022-12-06T09:55:24.467Z,101096.88
2022-12-06T09:58:17.488Z,101098.13
2022-12-06T10:00:49.326Z,101096.38
2022-12-06T10:03:45.370Z,101092.97
2022-12-06T10:06:19.479Z,101091.16
2022-12-06T10:09:17.094Z,101100.03
2022-12-06T10:11:55.821Z,101090.28
2022-12-06T10:14:35.466Z,101100.59
2022-12-06T10:17:27.071Z,101092.16
2022-12-06T10:20:03.057Z,101092.75
2022-12-06T10:22:57.154Z,101090.97
2022-12-06T10:26:01.796Z,101081.31
2022-12-06T10:28:44.902Z,101073.78
2022-12-06T10:31:30.516Z,101069.53
2022-12-06T10:34:12.463Z,101070.09
2022-12-06T10:37:03.669Z,101067.19
2022-12-06T10:39:52.086Z,101062.03
2022-12-06T10:42:35.527Z,101067.09
2022-12-06T10:45:28.509Z,101060.94
2022-12-06T10:48:00.707Z,101057.97
2022-12-06T10:50:33.338Z,101065.63
2022-12-06T10:53:22.439Z,101063.44
2022-12-06T10:55:57.925Z,101060.03
2022-12-06T10:58:27.494Z,101065.31
2022-12-06T11:01:02.792Z,101059.41
2022-12-06T11:03:32.405Z,101067.31
2022-12-06T11:06:11.260Z,101048.53
2022-12-06T11:08:59.374Z,101054.56
2022-12-06T11:11:35.828Z,101052.91
2022-12-06T11:14:20.882Z,101050.59
2022-12-06T11:16:55.594Z,101049.88
2022-12-06T11:19:46.881Z,101048.78
2022-12-06T11:22:33.382Z,101049.69
2022-12-06T11:25:09.414Z,101043.94
2022-12-06T11:27:49.310Z,101045.59
2022-12-06T11:30:20.477Z,101046.25
2022-12-06T11:32:51.077Z,101036.56
2022-12-06T11:35:25.044Z,101044.03
2022-12-06T11:37:56.622Z,101050.22
2022-12-06T11:40:31.261Z,101035.19
2022-12-06T11:43:02.023Z,101039.13
2022-12-06T11:45:39.844Z,101034.41
2022-12-06T11:48:21.832Z,101043.72
2022-12-06T11:50:49.967Z,101040.97
2022-12-06T11:53:33.395Z,101040.13
2022-12-06T11:56:21.813Z,101042.31
2022-12-06T11:59:05.183Z,101044.19
2022-12-06T12:01:45.153Z,101033.72
2022-12-06T12:04:23.395Z,101035.16
2022-12-06T12:07:04.499Z,101037.81
2022-12-06T12:09:35.352Z,101039.69
2022-12-06T12:12:13.050Z,101032.72
2022-12-06T12:14:40.421Z,101031.09
2022-12-06T12:17:19.289Z,101024.28
2022-12-06T12:19:57.047Z,101029.94
2022-12-06T12:22:27.718Z,101032.50
2022-12-06T12:27:49.691Z,101039.06
2022-12-06T12:30:23.143Z,101022.09
2022-12-06T12:32:52.189Z,101036.16
2022-12-06T12:35:21.940Z,101029.75
2022-12-06T12:37:52.500Z,101036.91
2022-12-06T12:40:24.784Z,101035.94
2022-12-06T12:43:00.600Z,101033.81
2022-12-06T12:45:27.706Z,101031.31
2022-12-06T12:48:02.179Z,101022.75
2022-12-06T12:50:31.614Z,101040.69
2022-12-06T12:52:59.085Z,101042.19
2022-12-06T12:55:30.836Z,101028.03
2022-12-06T12:58:01.066Z,101031.94
2022-12-06T13:00:41.466Z,101028.81
2022-12-06T13:06:20.154Z,101014.69
2022-12-06T13:08:47.092Z,101021.88
2022-12-06T13:11:13.818Z,101019.28
2022-12-06T13:13:44.297Z,101019.97
2022-12-06T13:16:14.807Z,101013.59
2022-12-06T13:18:45.983Z,101017.03
2022-12-06T13:21:35.643Z,101015.56
2022-12-06T13:24:25.128Z,101009.16
2022-12-06T13:26:57.447Z,101013.28
2022-12-06T13:29:45.821Z,101012.53
2022-12-06T13:32:28.126Z,101020.25
2022-12-06T13:35:04.572Z,101016.75
2022-12-06T13:37:51.017Z,101011.16
2022-12-06T13:40:33.006Z,101010.50
2022-12-06T13:43:01.671Z,101007.53
2022-12-06T13:45:45.793Z,101005.16
2022-12-06T13:48:24.712Z,101007.84
2022-12-06T13:51:01.422Z,101010.97
2022-12-06T13:53:33.767Z,101004.69
2022-12-06T13:56:21.693Z,101003.16
2022-12-06T13:58:54.191Z,101003.16
2022-12-06T14:02:00.845Z,101005.84
2022-12-06T14:06:56.997Z,101005.16
2022-12-06T14:09:25.818Z,101001.09
2022-12-06T14:11:53.237Z,101004.28
2022-12-06T14:14:23.372Z,100997.97
2022-12-06T14:16:53.105Z,101000.03
2022-12-06T14:19:29.498Z,100999.97
2022-12-06T14:22:12.850Z,100998.81
2022-12-06T14:24:42.046Z,101003.66
2022-12-06T14:27:21.134Z,100996.69
2022-12-06T14:30:14.484Z,101003.13
2022-12-06T14:32:44.820Z,101008.16
2022-12-06T14:35:20.124Z,101003.22
2022-12-06T14:38:02.164Z,100996.81
2022-12-06T14:40:58.118Z,100995.19
2022-12-06T14:43:27.618Z,101003.44
2022-12-06T14:45:55.449Z,100989.09
2022-12-06T14:48:22.746Z,100989.50
2022-12-06T14:51:00.649Z,100980.06
2022-12-06T14:53:38.177Z,100984.91
2022-12-06T14:56:23.463Z,100969.66
2022-12-06T14:58:50.201Z,100988.66
2022-12-06T15:01:20.756Z,100982.19
2022-12-06T15:04:07.656Z,100984.78
2022-12-06T15:06:36.746Z,100987.34
2022-12-06T15:09:13.933Z,100978.72
2022-12-06T15:12:01.689Z,100981.34
2022-12-06T15:14:46.317Z,100987.47
2022-12-06T15:17:12.805Z,100989.28
2022-12-06T15:19:46.362Z,100991.81
2022-12-06T15:22:25.454Z,100990.81
2022-12-06T15:24:57.662Z,100982.94
2022-12-06T15:27:26.802Z,100991.13
2022-12-06T15:29:53.473Z,100993.81
2022-12-06T15:32:22.792Z,100996.06
2022-12-06T15:34:49.349Z,100997.75
2022-12-06T15:40:04.339Z,100989.97
2022-12-06T15:42:31.220Z,100985.53
2022-12-06T15:44:57.972Z,100984.91
2022-12-06T15:47:24.812Z,100983.22
2022-12-06T15:49:53.115Z,100981.00
2022-12-06T15:52:24.559Z,100977.41
2022-12-06T15:54:51.560Z,100979.03
2022-12-06T15:57:18.211Z,100982.13
2022-12-06T15:59:44.898Z,100983.44
2022-12-06T16:02:16.920Z,100984.25
2022-12-06T16:04:44.713Z,100967.91
2022-12-06T16:07:13.174Z,100983.06
2022-12-06T16:09:39.783Z,100979.94
2022-12-06T16:12:06.571Z,100975.63
2022-12-06T16:14:33.208Z,100978.94
2022-12-06T16:16:59.725Z,100973.25
2022-12-06T16:19:46.715Z,100980.38
2022-12-06T16:22:13.341Z,100974.91
2022-12-06T16:24:39.953Z,100981.78
2022-12-06T16:27:06.510Z,100978.88
2022-12-06T16:29:33.338Z,100981.13
2022-12-06T16:31:59.936Z,100980.81
2022-12-06T16:34:28.467Z,100973.09
2022-12-06T16:36:55.009Z,100983.59
2022-12-06T16:39:21.723Z,100979.63
2022-12-06T16:41:48.487Z,100982.13
2022-12-06T16:44:15.019Z,100979.25
2022-12-06T16:46:42.500Z,100968.94
2022-12-06T16:52:14.144Z,100967.06
2022-12-06T16:54:43.739Z,100953.59
2022-12-06T16:57:14.719Z,100958.69
2022-12-06T16:59:44.796Z,100952.81
2022-12-06T17:02:32.259Z,100959.47
2022-12-06T17:05:01.118Z,100956.22
2022-12-06T17:07:28.445Z,100957.72
2022-12-06T17:09:55.048Z,100964.00
2022-12-06T17:12:21.640Z,100948.75
2022-12-06T17:14:48.374Z,100950.59
2022-12-06T17:17:16.927Z,100947.91
2022-12-06T17:19:43.580Z,100954.22
2022-12-06T17:22:11.822Z,100949.41
2022-12-06T17:24:38.982Z,100948.94
2022-12-06T17:27:06.837Z,100938.25
2022-12-06T17:29:34.130Z,100943.78
2022-12-06T17:32:00.707Z,100934.97
2022-12-06T17:34:27.434Z,100935.38
2022-12-06T17:36:54.752Z,100938.63
2022-12-06T17:39:21.715Z,100935.38
2022-12-06T17:42:07.011Z,100932.25
2022-12-06T17:44:34.059Z,100933.22
2022-12-06T17:47:01.418Z,100936.31
2022-12-06T17:49:28.559Z,100936.72
2022-12-06T17:51:55.393Z,100942.94
2022-12-06T17:54:22.522Z,100949.94
2022-12-06T17:56:51.792Z,100930.31
2022-12-06T17:59:21.175Z,100941.25
2022-12-06T18:02:14.228Z,100937.84
2022-12-06T18:04:35.216Z,100940.75
2022-12-06T18:07:01.746Z,100939.66
2022-12-06T18:09:28.277Z,100942.06
2022-12-06T18:11:55.615Z,100925.81
2022-12-06T18:14:22.287Z,100925.78
2022-12-06T18:16:48.978Z,100935.44
2022-12-06T18:19:18.145Z,100917.34
2022-12-06T18:21:45.481Z,100931.06
2022-12-06T18:24:23.934Z,100925.13
2022-12-06T18:26:52.146Z,100924.97
2022-12-06T18:29:21.189Z,100930.75
2022-12-06T18:31:48.385Z,100931.41
2022-12-06T18:34:15.385Z,100923.44
2022-12-06T18:36:42.421Z,100917.47
2022-12-06T18:39:14.852Z,100923.69
2022-12-06T18:41:43.364Z,100930.09
2022-12-06T18:44:10.532Z,100919.50
2022-12-06T18:46:38.690Z,100916.41
2022-12-06T18:49:05.539Z,100919.59
2022-12-06T18:51:35.179Z,100921.44
2022-12-06T18:54:04.445Z,100922.50
2022-12-06T18:56:32.805Z,100918.66
2022-12-06T18:59:01.017Z,100925.44
2022-12-06T19:01:30.816Z,100916.09
2022-12-06T19:04:03.218Z,100918.66
2022-12-06T19:06:35.987Z,100918.00
2022-12-06T19:09:15.552Z,100913.72
2022-12-06T19:11:45.951Z,100920.47
2022-12-06T19:14:13.993Z,100919.41
2022-12-06T19:16:43.192Z,100910.84
2022-12-06T19:19:16.622Z,100926.03
2022-12-06T19:21:47.931Z,100924.53
2022-12-06T19:24:18.157Z,100917.66
2022-12-06T19:26:44.907Z,100908.66
2022-12-06T19:29:12.163Z,100909.28
2022-12-06T19:31:38.770Z,100907.50
2022-12-06T19:34:05.331Z,100903.19
2022-12-06T19:36:32.613Z,100902.88
2022-12-06T19:39:08.717Z,100904.50
2022-12-06T19:41:58.594Z,100901.41
2022-12-06T19:44:26.770Z,100900.00
2022-12-06T19:46:53.495Z,100901.13
2022-12-06T19:49:22.465Z,100899.28
2022-12-06T19:51:50.038Z,100905.16
2022-12-06T19:54:19.717Z,100899.69
2022-12-06T19:56:47.604Z,100899.16
2022-12-06T19:59:14.214Z,100906.09
2022-12-06T20:01:43.902Z,100905.47
2022-12-06T20:04:16.383Z,100902.84
2022-12-06T20:06:42.998Z,100893.94
2022-12-06T20:09:10.265Z,100901.50
2022-12-06T20:11:57.483Z,100898.63
2022-12-06T20:14:24.595Z,100901.34
2022-12-06T20:16:51.336Z,100904.94
2022-12-06T20:19:18.939Z,100901.28
2022-12-06T20:21:45.869Z,100899.16
2022-12-06T20:24:16.441Z,100894.06
2022-12-06T20:26:43.065Z,100891.69
2022-12-06T20:29:09.775Z,100881.47
2022-12-06T20:31:36.688Z,100891.31
2022-12-06T20:34:10.171Z,100892.00
2022-12-06T20:36:40.965Z,100884.84
2022-12-06T20:39:07.872Z,100881.25
2022-12-06T20:41:34.602Z,100885.09
2022-12-06T20:44:02.069Z,100878.78
2022-12-06T20:46:31.224Z,100876.38
2022-12-06T20:49:02.552Z,100882.16
2022-12-06T20:51:30.545Z,100876.22
2022-12-06T20:53:59.288Z,100875.34
2022-12-06T20:56:38.938Z,100881.03
2022-12-06T20:59:07.271Z,100872.69
2022-12-06T21:01:36.819Z,100876.63
2022-12-06T21:04:03.501Z,100871.06
2022-12-06T21:06:30.126Z,100877.91
2022-12-06T21:08:57.077Z,100873.44
2022-12-06T21:11:25.343Z,100873.97
2022-12-06T21:13:56.659Z,100866.78
2022-12-06T21:16:31.540Z,100866.13
2022-12-06T21:19:00.684Z,100866.22
2022-12-06T21:21:35.407Z,100868.63
2022-12-06T21:24:04.426Z,100862.97
2022-12-06T21:26:31.491Z,100857.66
2022-12-06T21:28:58.419Z,100865.22
2022-12-06T21:31:30.801Z,100868.59
2022-12-06T21:33:57.608Z,100862.44
2022-12-06T21:36:25.828Z,100868.59
2022-12-06T21:38:52.983Z,100860.72
2022-12-06T21:41:19.878Z,100860.69
2022-12-06T21:43:46.771Z,100852.53
2022-12-06T21:46:16.560Z,100853.06
2022-12-06T21:48:44.398Z,100863.13
2022-12-06T21:51:14.225Z,100855.44
2022-12-06T21:53:42.191Z,100855.25
2022-12-06T21:56:11.383Z,100858.19
2022-12-06T21:58:38.093Z,100862.00
2022-12-06T22:01:13.801Z,100860.97
2022-12-06T22:03:40.820Z,100864.22
2022-12-06T22:06:09.357Z,100852.97
2022-12-06T22:08:38.188Z,100858.09
2022-12-06T22:11:13.354Z,100855.38
2022-12-06T22:13:40.708Z,100866.13
2022-12-06T22:16:10.006Z,100867.44
2022-12-06T22:18:44.381Z,100866.91
2022-12-06T22:21:17.267Z,100867.44
2022-12-06T22:23:44.445Z,100868.28
2022-12-06T22:26:15.187Z,100871.91
2022-12-06T22:28:41.925Z,100866.09
2022-12-06T22:31:09.447Z,100871.16
2022-12-06T22:33:36.194Z,100870.38
2022-12-06T22:36:03.471Z,100872.44
2022-12-06T22:38:30.138Z,100860.75
2022-12-06T22:41:01.501Z,100869.84
2022-12-06T22:43:28.951Z,100869.66
2022-12-06T22:45:55.892Z,100869.03
2022-12-06T22:48:22.482Z,100871.13
2022-12-06T22:50:49.022Z,100869.59
2022-12-06T22:53:15.573Z,100869.69
2022-12-06T22:55:42.104Z,100871.84
2022-12-06T22:58:08.636Z,100859.47
2022-12-06T23:00:35.216Z,100866.31
2022-12-06T23:03:01.786Z,100859.06
2022-12-06T23:05:28.310Z,100857.88
2022-12-06T23:07:56.787Z,100859.13
2022-12-06T23:10:23.424Z,100851.28
2022-12-06T23:12:50.096Z,100846.31
2022-12-06T23:15:16.729Z,100842.34
2022-12-06T23:17:43.236Z,100844.44
2022-12-06T23:20:10.028Z,100850.56
2022-12-06T23:22:36.531Z,100850.44
2022-12-06T23:25:03.213Z,100849.91
2022-12-06T23:27:29.780Z,100841.69
2022-12-06T23:29:56.288Z,100844.03
2022-12-06T23:32:22.938Z,100842.34
2022-12-06T23:34:49.488Z,100840.97
2022-12-06T23:37:16.071Z,100841.84
2022-12-06T23:39:42.600Z,100843.72
2022-12-06T23:42:09.252Z,100835.69
2022-12-06T23:44:36.997Z,100855.28
2022-12-06T23:47:03.725Z,100846.44
2022-12-06T23:49:30.638Z,100850.03
2022-12-06T23:51:57.349Z,100853.66
2022-12-06T23:54:24.224Z,100851.44
2022-12-06T23:56:50.774Z,100852.56
2022-12-06T23:59:17.817Z,100852.91
